createdAt,value
2018-05-29T00:00:16.444Z,44.57
2018-05-29T00:02:43.219Z,46.03
2018-05-29T00:05:10.730Z,44.47
2018-05-29T00:07:37.591Z,46.10
2018-05-29T00:10:04.428Z,47.60
2018-05-29T00:12:31.241Z,46.20
2018-05-29T00:14:58.068Z,48.97
2018-05-29T00:17:25.630Z,49.13
2018-05-29T00:19:52.488Z,49.70
2018-05-29T00:22:19.309Z,50.83
2018-05-29T00:24:46.820Z,47.00
2018-05-29T00:27:14.220Z,49.00
2018-05-29T00:29:40.979Z,49.10
2018-05-29T00:32:07.808Z,46.03
2018-05-29T00:34:35.413Z,49.20
2018-05-29T00:37:02.445Z,47.57
2018-05-29T00:39:29.316Z,47.73
2018-05-29T00:41:56.097Z,49.77
2018-05-29T00:44:23.320Z,46.77
2018-05-29T00:46:50.103Z,49.87
2018-05-29T00:49:17.628Z,48.43
2018-05-29T00:51:44.442Z,48.20
2018-05-29T00:54:11.444Z,47.63
2018-05-29T00:56:38.306Z,47.33
2018-05-29T00:59:05.863Z,52.23
2018-05-29T01:01:33.422Z,50.00
2018-05-29T01:04:00.985Z,47.50
2018-05-29T01:06:28.557Z,47.47
2018-05-29T01:08:55.389Z,50.07
2018-05-29T01:11:22.906Z,47.93
2018-05-29T01:13:49.758Z,48.80
2018-05-29T01:16:16.533Z,48.07
2018-05-29T01:18:44.092Z,47.47
2018-05-29T01:21:10.959Z,50.80
2018-05-29T01:23:37.768Z,50.00
2018-05-29T01:26:04.619Z,50.10
2018-05-29T01:28:31.416Z,51.33
2018-05-29T01:30:58.235Z,49.03
2018-05-29T01:33:25.370Z,50.93
2018-05-29T01:35:52.891Z,50.37
2018-05-29T01:38:19.696Z,52.47
2018-05-29T01:40:46.519Z,51.77
2018-05-29T01:43:14.089Z,51.37
2018-05-29T01:45:40.911Z,51.50
2018-05-29T01:48:08.476Z,48.27
2018-05-29T01:50:35.991Z,49.30
2018-05-29T01:53:02.925Z,48.97
2018-05-29T01:55:29.716Z,47.77
2018-05-29T01:57:56.552Z,47.30
2018-05-29T02:00:23.376Z,47.10
2018-05-29T02:02:50.163Z,49.10
2018-05-29T02:05:17.671Z,50.90
2018-05-29T02:07:44.481Z,49.23
2018-05-29T02:10:11.309Z,51.57
2018-05-29T02:12:38.925Z,50.17
2018-05-29T02:15:05.712Z,48.80
2018-05-29T02:17:33.477Z,50.13
2018-05-29T02:20:01.064Z,49.87
2018-05-29T02:22:27.903Z,45.17
2018-05-29T02:24:54.724Z,43.13
2018-05-29T02:27:22.287Z,45.30
2018-05-29T02:29:49.800Z,43.43
2018-05-29T02:32:16.649Z,41.27
2018-05-29T02:34:44.267Z,43.53
2018-05-29T02:37:11.092Z,43.17
2018-05-29T02:39:38.611Z,42.97
2018-05-29T02:42:05.456Z,44.37
2018-05-29T02:44:32.245Z,41.43
2018-05-29T02:46:59.125Z,41.33
2018-05-29T02:49:25.913Z,41.20
2018-05-29T02:51:52.697Z,40.83
2018-05-29T02:54:19.531Z,39.63
2018-05-29T02:56:46.296Z,39.47
2018-05-29T02:59:13.861Z,42.47
2018-05-29T03:01:40.685Z,42.57
2018-05-29T03:04:07.492Z,44.90
2018-05-29T03:06:34.303Z,42.60
2018-05-29T03:09:01.081Z,44.77
2018-05-29T03:11:28.300Z,44.53
2018-05-29T03:13:55.071Z,44.67
2018-05-29T03:16:22.604Z,44.87
2018-05-29T03:18:49.599Z,45.67
2018-05-29T03:21:17.181Z,44.97
2018-05-29T03:23:44.003Z,45.20
2018-05-29T03:26:11.566Z,44.53
2018-05-29T03:28:38.358Z,49.43
2018-05-29T03:31:05.196Z,43.43
2018-05-29T03:33:32.210Z,42.27
2018-05-29T03:35:59.096Z,41.33
2018-05-29T03:38:25.899Z,41.13
2018-05-29T03:40:52.675Z,42.37
2018-05-29T03:43:19.493Z,42.80
2018-05-29T03:45:46.267Z,41.17
2018-05-29T03:48:13.279Z,39.30
2018-05-29T03:50:40.057Z,38.07
2018-05-29T03:53:06.844Z,37.57
2018-05-29T03:55:34.419Z,37.40
2018-05-29T03:58:01.392Z,39.03
2018-05-29T04:00:29.207Z,35.93
2018-05-29T04:02:56.784Z,37.70
2018-05-29T04:05:24.561Z,38.93
2018-05-29T04:07:51.481Z,37.07
2018-05-29T04:10:19.003Z,39.00
2018-05-29T04:12:46.596Z,36.63
2018-05-29T04:15:19.421Z,36.10
2018-05-29T04:17:46.236Z,34.93
2018-05-29T04:20:13.871Z,36.10
2018-05-29T04:22:40.703Z,35.53
2018-05-29T04:25:08.280Z,34.90
2018-05-29T04:27:35.452Z,35.47
2018-05-29T04:30:03.048Z,35.30
2018-05-29T04:32:29.816Z,33.40
2018-05-29T04:34:56.635Z,32.67
2018-05-29T04:37:23.452Z,33.93
2018-05-29T04:39:50.968Z,35.53
2018-05-29T04:42:18.117Z,35.63
2018-05-29T04:44:44.892Z,34.10
2018-05-29T04:47:11.665Z,33.77
2018-05-29T04:49:38.569Z,34.37
2018-05-29T04:52:05.312Z,33.47
2018-05-29T04:54:32.377Z,31.07
2018-05-29T04:56:59.896Z,32.83
2018-05-29T04:59:26.672Z,32.00
2018-05-29T05:01:53.543Z,28.87
2018-05-29T05:04:20.329Z,28.27
2018-05-29T05:06:48.084Z,29.33
2018-05-29T05:09:14.891Z,32.33
2018-05-29T05:11:41.682Z,29.30
2018-05-29T05:14:08.574Z,28.37
2018-05-29T05:16:35.340Z,31.57
2018-05-29T05:19:02.190Z,30.07
2018-05-29T05:21:29.044Z,28.37
2018-05-29T05:23:55.825Z,28.10
2018-05-29T05:26:22.849Z,27.33
2018-05-29T05:28:49.624Z,27.77
2018-05-29T05:31:17.151Z,26.30
2018-05-29T05:33:43.983Z,27.03
2018-05-29T05:36:10.992Z,25.60
2018-05-29T05:38:37.861Z,26.13
2018-05-29T05:41:04.684Z,25.20
2018-05-29T05:43:31.460Z,22.33
2018-05-29T05:45:58.293Z,24.07
2018-05-29T05:48:25.072Z,21.53
2018-05-29T05:50:51.948Z,20.63
2018-05-29T05:53:19.456Z,21.13
2018-05-29T05:55:46.240Z,20.93
2018-05-29T05:58:13.792Z,19.77
2018-05-29T06:00:40.560Z,21.17
2018-05-29T06:03:07.399Z,20.40
2018-05-29T06:05:34.260Z,22.03
2018-05-29T06:08:01.269Z,18.57
2018-05-29T06:10:28.816Z,19.13
2018-05-29T06:12:55.619Z,18.63
2018-05-29T06:15:28.397Z,17.90
2018-05-29T06:17:55.163Z,19.97
2018-05-29T06:20:22.033Z,19.03
2018-05-29T06:22:48.863Z,20.13
2018-05-29T06:25:15.706Z,16.70
2018-05-29T06:27:42.598Z,17.80
2018-05-29T06:30:10.847Z,19.30
2018-05-29T06:32:37.631Z,17.20
2018-05-29T06:35:04.567Z,17.93
2018-05-29T06:37:31.355Z,18.60
2018-05-29T06:39:58.912Z,17.93
2018-05-29T06:42:25.728Z,18.20
2018-05-29T06:44:52.557Z,17.53
2018-05-29T06:47:20.045Z,17.53
2018-05-29T06:49:46.903Z,18.97
2018-05-29T06:52:14.541Z,17.90
2018-05-29T06:54:41.368Z,17.80
2018-05-29T06:57:08.140Z,17.13
2018-05-29T06:59:34.959Z,18.23
2018-05-29T07:02:01.747Z,18.50
2018-05-29T07:04:29.323Z,17.83
2018-05-29T07:06:56.400Z,16.93
2018-05-29T07:09:32.196Z,18.53
2018-05-29T07:11:59.185Z,17.10
2018-05-29T07:14:25.964Z,18.30
2018-05-29T07:16:52.774Z,17.63
2018-05-29T07:19:20.339Z,18.33
2018-05-29T07:21:47.900Z,16.63
2018-05-29T07:24:15.703Z,17.93
2018-05-29T07:26:42.475Z,18.60
2018-05-29T07:29:09.296Z,17.80
2018-05-29T07:31:36.114Z,18.00
2018-05-29T07:34:02.923Z,17.20
2018-05-29T07:36:29.742Z,18.63
2018-05-29T07:38:56.552Z,17.30
2018-05-29T07:41:23.425Z,18.03
2018-05-29T07:43:50.198Z,17.37
2018-05-29T07:46:17.018Z,17.43
2018-05-29T07:48:43.779Z,18.33
2018-05-29T07:51:10.823Z,18.33
2018-05-29T07:53:37.628Z,16.40
2018-05-29T07:56:05.230Z,18.40
2018-05-29T07:58:32.012Z,19.00
2018-05-29T08:00:58.769Z,17.57
2018-05-29T08:03:25.577Z,16.50
2018-05-29T08:05:52.576Z,17.63
2018-05-29T08:08:19.349Z,17.47
2018-05-29T08:10:46.112Z,16.97
2018-05-29T08:13:17.937Z,17.37
2018-05-29T08:15:44.716Z,18.50
2018-05-29T08:18:11.561Z,17.23
2018-05-29T08:20:39.365Z,16.20
2018-05-29T08:23:06.128Z,16.83
2018-05-29T08:25:32.896Z,16.00
2018-05-29T08:27:59.708Z,16.97
2018-05-29T08:30:27.256Z,17.00
2018-05-29T08:32:54.032Z,17.70
2018-05-29T08:35:20.892Z,17.17
2018-05-29T08:37:48.400Z,16.93
2018-05-29T08:40:15.168Z,16.53
2018-05-29T08:42:42.056Z,16.53
2018-05-29T08:45:09.637Z,16.10
2018-05-29T08:47:36.408Z,15.73
2018-05-29T08:50:03.268Z,15.97
2018-05-29T08:52:30.043Z,15.57
2018-05-29T08:54:56.861Z,15.90
2018-05-29T08:57:23.871Z,15.47
2018-05-29T08:59:50.632Z,15.37
2018-05-29T09:02:17.408Z,15.30
2018-05-29T09:04:44.220Z,14.50
2018-05-29T09:07:11.055Z,15.83
2018-05-29T09:09:37.832Z,14.63
2018-05-29T09:12:05.400Z,14.97
2018-05-29T09:14:32.966Z,15.03
2018-05-29T09:17:00.473Z,14.90
2018-05-29T09:19:28.088Z,15.93
2018-05-29T09:21:55.648Z,14.43
2018-05-29T09:24:23.163Z,14.67
2018-05-29T09:26:50.033Z,15.20
2018-05-29T09:29:16.823Z,13.80
2018-05-29T09:31:43.639Z,13.43
2018-05-29T09:34:11.431Z,13.97
2018-05-29T09:36:38.210Z,13.80
2018-05-29T09:39:05.054Z,13.13
2018-05-29T09:41:31.875Z,13.07
2018-05-29T09:43:59.020Z,12.53
2018-05-29T09:46:25.789Z,12.90
2018-05-29T09:48:52.610Z,12.63
2018-05-29T09:51:19.409Z,13.53
2018-05-29T09:53:46.238Z,12.17
2018-05-29T09:56:13.092Z,12.87
2018-05-29T09:58:40.063Z,13.63
2018-05-29T10:01:06.880Z,13.03
2018-05-29T10:03:33.636Z,11.87
2018-05-29T10:06:01.208Z,11.63
2018-05-29T10:08:28.036Z,11.50
2018-05-29T10:10:55.550Z,11.77
2018-05-29T10:13:22.365Z,10.83
2018-05-29T10:15:49.135Z,10.90
2018-05-29T10:18:15.903Z,9.43
2018-05-29T10:20:42.779Z,10.27
2018-05-29T10:23:10.288Z,10.20
2018-05-29T10:25:37.480Z,9.43
2018-05-29T10:28:05.193Z,10.23
2018-05-29T10:30:31.965Z,10.17
2018-05-29T10:32:59.051Z,10.27
2018-05-29T10:35:25.879Z,10.17
2018-05-29T10:37:53.386Z,9.60
2018-05-29T10:40:20.156Z,11.07
2018-05-29T10:42:46.967Z,10.40
2018-05-29T10:45:19.788Z,11.23
2018-05-29T10:47:46.584Z,10.63
2018-05-29T10:50:13.397Z,10.67
2018-05-29T10:52:40.904Z,14.33
2018-05-29T10:55:07.685Z,12.67
2018-05-29T10:57:34.557Z,12.73
2018-05-29T11:00:01.354Z,13.17
2018-05-29T11:02:28.166Z,10.13
2018-05-29T11:04:54.987Z,10.57
2018-05-29T11:07:21.766Z,11.70
2018-05-29T11:09:49.332Z,13.00
2018-05-29T11:12:16.157Z,11.93
2018-05-29T11:14:42.927Z,10.80
2018-05-29T11:17:09.688Z,11.80
2018-05-29T11:19:36.515Z,11.70
2018-05-29T11:22:04.239Z,16.07
2018-05-29T11:24:31.009Z,12.40
2018-05-29T11:26:57.884Z,12.47
2018-05-29T11:29:24.658Z,11.67
2018-05-29T11:31:51.428Z,11.67
2018-05-29T11:34:19.041Z,11.27
2018-05-29T11:36:46.555Z,10.97
2018-05-29T11:39:13.338Z,11.77
2018-05-29T11:41:40.155Z,11.40
2018-05-29T11:44:06.957Z,10.57
2018-05-29T11:46:33.812Z,10.23
2018-05-29T11:49:00.652Z,10.27
2018-05-29T11:51:27.428Z,10.33
2018-05-29T11:53:54.196Z,11.00
2018-05-29T11:56:21.040Z,10.47
2018-05-29T11:58:48.667Z,10.70
2018-05-29T12:01:15.451Z,9.57
2018-05-29T12:03:42.308Z,9.93
2018-05-29T12:06:09.845Z,9.63
2018-05-29T12:08:36.639Z,9.23
2018-05-29T12:11:03.552Z,10.13
2018-05-29T12:13:31.083Z,8.27
2018-05-29T12:15:57.882Z,10.07
2018-05-29T12:18:24.711Z,9.40
2018-05-29T12:20:51.495Z,9.27
2018-05-29T12:23:19.156Z,8.40
2018-05-29T12:25:45.980Z,9.50
2018-05-29T12:28:12.792Z,9.17
2018-05-29T12:30:39.600Z,9.17
2018-05-29T12:33:06.436Z,8.57
2018-05-29T12:35:33.322Z,9.33
2018-05-29T12:38:00.844Z,9.63
2018-05-29T12:40:27.811Z,8.23
2018-05-29T12:42:54.584Z,9.17
2018-05-29T12:45:27.548Z,8.73
2018-05-29T12:47:54.383Z,9.50
2018-05-29T12:50:21.926Z,9.07
2018-05-29T12:52:48.848Z,9.93
2018-05-29T12:55:15.624Z,9.07
2018-05-29T12:57:42.495Z,8.97
2018-05-29T13:00:09.456Z,9.73
2018-05-29T13:02:36.231Z,9.17
2018-05-29T13:05:03.088Z,9.60
2018-05-29T13:07:30.004Z,10.70
2018-05-29T13:09:56.808Z,9.93
2018-05-29T13:12:23.678Z,10.13
2018-05-29T13:14:50.551Z,11.00
2018-05-29T13:17:17.341Z,12.10
2018-05-29T13:19:44.864Z,9.37
2018-05-29T13:22:11.692Z,10.40
2018-05-29T13:24:39.304Z,10.30
2018-05-29T13:27:06.898Z,10.03
2018-05-29T13:29:33.712Z,10.50
2018-05-29T13:32:01.233Z,10.30
2018-05-29T13:34:28.020Z,10.17
2018-05-29T13:36:54.897Z,10.80
2018-05-29T13:39:21.664Z,9.87
2018-05-29T13:41:48.451Z,10.13
2018-05-29T13:44:16.023Z,10.90
2018-05-29T13:46:42.796Z,10.30
2018-05-29T13:49:10.419Z,10.37
2018-05-29T13:51:37.976Z,10.83
2018-05-29T13:54:05.520Z,9.60
2018-05-29T13:56:32.344Z,9.13
2018-05-29T13:58:59.139Z,9.20
2018-05-29T14:01:25.974Z,9.60
2018-05-29T14:03:53.482Z,9.50
2018-05-29T14:06:20.485Z,9.80
2018-05-29T14:08:48.116Z,9.53
2018-05-29T14:11:14.905Z,9.20
2018-05-29T14:13:41.912Z,8.83
2018-05-29T14:16:08.696Z,9.83
2018-05-29T14:18:37.464Z,10.14
2018-05-29T14:21:04.346Z,8.33
2018-05-29T14:23:31.116Z,9.43
2018-05-29T14:25:57.947Z,9.50
2018-05-29T14:28:25.187Z,12.00
2018-05-29T14:30:51.955Z,9.27
2018-05-29T14:33:18.792Z,8.97
2018-05-29T14:35:46.016Z,7.67
2018-05-29T14:38:13.605Z,9.00
2018-05-29T14:40:40.373Z,8.10
2018-05-29T14:43:07.316Z,7.60
2018-05-29T14:45:35.892Z,10.67
2018-05-29T14:48:02.663Z,8.63
2018-05-29T14:50:31.410Z,8.80
2018-05-29T14:52:58.188Z,8.50
2018-05-29T14:55:25.713Z,7.47
2018-05-29T14:57:52.624Z,6.90
2018-05-29T15:00:19.476Z,7.90
2018-05-29T15:02:47.061Z,11.07
2018-05-29T15:05:13.894Z,7.13
2018-05-29T15:07:40.671Z,8.87
2018-05-29T15:10:08.187Z,6.90
2018-05-29T15:12:35.155Z,7.23
2018-05-29T15:15:02.021Z,7.50
2018-05-29T15:17:29.536Z,7.80
2018-05-29T15:19:56.360Z,7.17
2018-05-29T15:22:23.128Z,5.90
2018-05-29T15:24:49.905Z,8.00
2018-05-29T15:27:16.808Z,6.87
2018-05-29T15:29:44.429Z,6.80
2018-05-29T15:32:12.019Z,5.73
2018-05-29T15:34:38.850Z,7.03
2018-05-29T15:37:05.679Z,6.00
2018-05-29T15:39:32.500Z,4.73
2018-05-29T15:41:59.629Z,5.40
2018-05-29T15:44:26.434Z,4.67
2018-05-29T15:46:53.244Z,4.77
2018-05-29T15:49:20.824Z,4.00
2018-05-29T15:51:47.686Z,5.27
2018-05-29T15:54:14.474Z,4.30
2018-05-29T15:56:41.318Z,7.67
2018-05-29T15:59:08.147Z,6.27
2018-05-29T16:01:34.930Z,6.63
2018-05-29T16:04:01.782Z,3.47
2018-05-29T16:06:29.344Z,6.00
2018-05-29T16:08:56.848Z,4.43
2018-05-29T16:11:23.621Z,5.40
2018-05-29T16:13:50.460Z,6.63
2018-05-29T16:16:17.284Z,6.17
2018-05-29T16:18:44.070Z,4.00
2018-05-29T16:21:11.638Z,8.40
2018-05-29T16:23:38.412Z,3.67
2018-05-29T16:26:05.204Z,4.67
2018-05-29T16:28:32.083Z,4.70
2018-05-29T16:30:59.557Z,4.57
2018-05-29T16:33:26.327Z,4.20
2018-05-29T16:35:53.155Z,4.70
2018-05-29T16:38:19.940Z,4.50
2018-05-29T16:40:46.819Z,6.70
2018-05-29T16:43:14.721Z,4.00
2018-05-29T16:45:41.512Z,5.63
2018-05-29T16:48:09.048Z,3.97
2018-05-29T16:50:35.980Z,4.83
2018-05-29T16:53:02.840Z,5.53
2018-05-29T16:55:29.625Z,4.77
2018-05-29T16:57:56.444Z,4.43
2018-05-29T17:00:23.960Z,4.00
2018-05-29T17:02:50.777Z,5.60
2018-05-29T17:05:18.530Z,4.23
2018-05-29T17:07:45.312Z,4.47
2018-05-29T17:10:12.091Z,4.67
2018-05-29T17:12:38.966Z,4.03
2018-05-29T17:15:11.842Z,5.80
2018-05-29T17:17:38.696Z,4.43
2018-05-29T17:20:05.849Z,4.20
2018-05-29T17:22:32.611Z,6.57
2018-05-29T17:24:59.395Z,4.10
2018-05-29T17:27:26.211Z,5.80
2018-05-29T17:29:53.041Z,5.87
2018-05-29T17:32:19.834Z,4.43
2018-05-29T17:34:47.443Z,4.53
2018-05-29T17:37:14.260Z,3.67
2018-05-29T17:39:41.082Z,6.40
2018-05-29T17:42:08.134Z,7.70
2018-05-29T17:44:35.680Z,3.33
2018-05-29T17:47:02.447Z,4.10
2018-05-29T17:49:30.041Z,8.20
2018-05-29T17:51:56.876Z,5.37
2018-05-29T17:54:23.796Z,6.40
2018-05-29T17:56:51.599Z,5.20
2018-05-29T17:59:18.394Z,4.37
2018-05-29T18:01:45.908Z,5.27
2018-05-29T18:04:12.867Z,5.00
2018-05-29T18:06:40.490Z,4.53
2018-05-29T18:09:07.267Z,5.00
2018-05-29T18:11:34.180Z,5.70
2018-05-29T18:14:00.947Z,5.93
2018-05-29T18:16:27.737Z,4.30
2018-05-29T18:18:54.820Z,5.07
2018-05-29T18:21:21.669Z,7.17
2018-05-29T18:23:48.458Z,5.57
2018-05-29T18:26:15.483Z,8.17
2018-05-29T18:28:42.257Z,5.37
2018-05-29T18:31:09.151Z,3.53
2018-05-29T18:33:35.944Z,5.70
2018-05-29T18:36:02.780Z,4.43
2018-05-29T18:38:29.812Z,4.07
2018-05-29T18:40:56.809Z,6.63
2018-05-29T18:43:23.640Z,5.07
2018-05-29T18:45:51.183Z,5.40
2018-05-29T18:48:18.029Z,6.13
2018-05-29T18:50:44.811Z,7.50
2018-05-29T18:53:11.592Z,6.90
2018-05-29T18:55:38.513Z,6.87
2018-05-29T18:58:05.398Z,5.17
2018-05-29T19:00:32.192Z,6.67
2018-05-29T19:02:59.004Z,7.53
2018-05-29T19:05:26.524Z,9.97
2018-05-29T19:07:54.089Z,5.87
2018-05-29T19:10:20.919Z,7.97
2018-05-29T19:12:48.513Z,5.57
2018-05-29T19:15:21.495Z,5.70
2018-05-29T19:17:48.335Z,6.13
2018-05-29T19:20:15.193Z,8.20
2018-05-29T19:22:41.964Z,5.93
2018-05-29T19:25:08.847Z,6.93
2018-05-29T19:27:35.628Z,8.63
2018-05-29T19:30:03.204Z,6.50
2018-05-29T19:32:30.322Z,5.23
2018-05-29T19:34:57.361Z,8.17
2018-05-29T19:37:24.132Z,6.03
2018-05-29T19:39:51.688Z,4.20
2018-05-29T19:42:18.456Z,3.83
2018-05-29T19:44:45.317Z,7.23
2018-05-29T19:47:12.204Z,6.07
2018-05-29T19:49:38.992Z,5.10
2018-05-29T19:52:05.809Z,5.53
2018-05-29T19:54:33.357Z,6.60
2018-05-29T19:57:00.221Z,3.53
2018-05-29T19:59:27.756Z,3.97
2018-05-29T20:01:55.452Z,6.70
2018-05-29T20:04:22.992Z,5.77
2018-05-29T20:06:50.535Z,7.73
2018-05-29T20:09:17.419Z,10.00
2018-05-29T20:11:45.072Z,10.40
2018-05-29T20:14:12.652Z,8.33
2018-05-29T20:16:39.479Z,7.87
2018-05-29T20:19:07.008Z,9.17
2018-05-29T20:21:33.844Z,7.70
2018-05-29T20:24:00.683Z,9.20
2018-05-29T20:26:27.489Z,8.00
2018-05-29T20:28:54.269Z,11.97
2018-05-29T20:31:21.169Z,9.67
2018-05-29T20:33:48.005Z,7.57
2018-05-29T20:36:15.524Z,9.20
2018-05-29T20:38:42.331Z,7.47
2018-05-29T20:41:09.115Z,8.43
2018-05-29T20:43:35.944Z,10.90
2018-05-29T20:46:03.575Z,8.57
2018-05-29T20:48:30.347Z,8.80
2018-05-29T20:50:57.368Z,11.27
2018-05-29T20:53:24.197Z,8.47
2018-05-29T20:55:51.708Z,10.27
2018-05-29T20:58:18.532Z,8.43
2018-05-29T21:00:45.504Z,8.13
2018-05-29T21:03:12.384Z,10.30
2018-05-29T21:05:39.185Z,12.43
2018-05-29T21:08:06.019Z,19.00
2018-05-29T21:10:33.600Z,17.00
2018-05-29T21:13:00.394Z,14.77
2018-05-29T21:15:30.218Z,20.27
2018-05-29T21:17:56.977Z,18.67
2018-05-29T21:20:23.739Z,14.53
2018-05-29T21:22:50.756Z,15.60
2018-05-29T21:25:17.552Z,15.47
2018-05-29T21:27:45.091Z,12.20
2018-05-29T21:30:11.924Z,14.90
2018-05-29T21:32:38.695Z,13.87
2018-05-29T21:35:05.529Z,14.03
2018-05-29T21:37:33.115Z,13.73
2018-05-29T21:40:00.632Z,15.57
2018-05-29T21:42:27.414Z,15.40
2018-05-29T21:44:55.109Z,17.60
2018-05-29T21:47:21.944Z,16.67
2018-05-29T21:49:48.743Z,16.23
2018-05-29T21:52:15.896Z,18.60
2018-05-29T21:54:42.687Z,18.67
2018-05-29T21:57:09.459Z,21.40
2018-05-29T21:59:37.087Z,18.23
2018-05-29T22:02:03.900Z,19.57
2018-05-29T22:04:30.744Z,21.50
2018-05-29T22:06:57.944Z,24.20
2018-05-29T22:09:24.771Z,23.37
2018-05-29T22:11:51.627Z,20.73
2018-05-29T22:14:18.577Z,21.73
2018-05-29T22:16:45.594Z,22.60
2018-05-29T22:19:12.367Z,23.97
2018-05-29T22:21:39.923Z,19.93
2018-05-29T22:24:06.751Z,21.03
2018-05-29T22:26:33.523Z,22.13
2018-05-29T22:29:00.335Z,18.77
2018-05-29T22:31:27.110Z,18.93
2018-05-29T22:33:53.944Z,22.93
2018-05-29T22:36:21.505Z,18.40
2018-05-29T22:38:49.027Z,19.33
2018-05-29T22:41:16.596Z,20.33
2018-05-29T22:43:43.382Z,19.67
2018-05-29T22:46:10.403Z,19.70
2018-05-29T22:48:37.259Z,19.00
2018-05-29T22:51:04.056Z,19.27
2018-05-29T22:53:31.564Z,19.00
2018-05-29T22:55:58.380Z,20.57
2018-05-29T22:58:25.155Z,18.57
2018-05-29T23:00:52.736Z,19.67
2018-05-29T23:03:20.444Z,19.63
2018-05-29T23:05:47.996Z,19.37
2018-05-29T23:08:15.517Z,18.83
2018-05-29T23:10:42.327Z,19.60
2018-05-29T23:13:09.149Z,18.10
2018-05-29T23:15:36.659Z,17.97
2018-05-29T23:18:03.487Z,16.00
2018-05-29T23:20:30.269Z,17.80
2018-05-29T23:22:57.059Z,16.80
2018-05-29T23:25:24.040Z,19.23
2018-05-29T23:27:50.815Z,20.70
2018-05-29T23:30:18.326Z,18.27
2018-05-29T23:32:45.155Z,17.27
2018-05-29T23:35:11.948Z,18.10
2018-05-29T23:37:38.781Z,17.63
2018-05-29T23:40:05.776Z,18.63
2018-05-29T23:42:32.549Z,19.43
2018-05-29T23:44:59.335Z,18.80
2018-05-29T23:47:26.943Z,20.00
2018-05-29T23:49:53.768Z,19.80
2018-05-29T23:52:20.556Z,19.60
2018-05-29T23:54:47.477Z,21.17
2018-05-29T23:57:14.270Z,19.17
2018-05-29T23:59:41.825Z,18.87
